Time;durP1;ratioP1;P1;durP2;ratioP2;P2;SDS_P1;SDS_P2;PMS_P1;PMS_P2;Temp;Humidity;BMP_temperature;BMP_pressure;BME280_temperature;BME280_humidity;BME280_pressure;Samples;Min_cycle;Max_cycle;Signal;HPM_P1;HPM_P2
2022/05/16 00:01:30;;;;;;;4.77;2.70;;;17.00;79.20;;;;;;5051089;28;20455;-74
2022/05/16 00:04:15;;;;;;;4.10;3.00;;;17.00;79.00;;;;;;5048776;28;20467;-74
2022/05/16 00:07:02;;;;;;;5.47;2.93;;;16.90;78.80;;;;;;5052860;28;20438;-74
2022/05/16 00:09:48;;;;;;;5.87;2.63;;;16.80;79.80;;;;;;5057465;28;20440;-74
2022/05/16 00:12:34;;;;;;;7.13;2.53;;;16.70;79.50;;;;;;5057133;28;20451;-74
2022/05/16 00:15:21;;;;;;;6.23;3.03;;;16.70;80.80;;;;;;5045948;28;20458;-75
2022/05/16 00:18:07;;;;;;;4.53;2.70;;;16.50;81.30;;;;;;5055261;28;20558;-74
2022/05/16 00:20:52;;;;;;;5.73;2.70;;;16.50;82.70;;;;;;5051922;28;20809;-74
2022/05/16 00:23:39;;;;;;;4.73;2.80;;;16.40;84.60;;;;;;5046395;28;20447;-74
2022/05/16 00:26:25;;;;;;;3.57;2.63;;;16.40;84.50;;;;;;5053966;28;20398;-74
2022/05/16 00:29:11;;;;;;;3.80;2.30;;;16.40;86.10;;;;;;5059544;28;20475;-74
2022/05/16 00:31:56;;;;;;;13.23;3.57;;;16.40;86.60;;;;;;5041490;28;20824;-74
2022/05/16 00:34:42;;;;;;;8.80;3.13;;;16.40;86.70;;;;;;5050139;28;20450;-74
2022/05/16 00:37:28;;;;;;;5.47;3.00;;;16.30;86.10;;;;;;5057107;28;20432;-74
2022/05/16 00:40:16;;;;;;;9.90;3.37;;;16.30;87.70;;;;;;5052443;28;21014;-74
2022/05/16 00:43:03;;;;;;;6.80;3.03;;;16.20;87.20;;;;;;5041369;28;20448;-74
2022/05/16 00:45:50;;;;;;;4.60;2.83;;;16.30;86.80;;;;;;5050495;28;20443;-74
2022/05/16 00:48:36;;;;;;;10.57;2.63;;;16.20;87.30;;;;;;5049479;28;20478;-74
2022/05/16 00:51:24;;;;;;;5.97;2.60;;;16.20;88.20;;;;;;5049870;28;20451;-74
2022/05/16 00:54:15;;;;;;;12.03;3.47;;;16.20;88.50;;;;;;5046263;28;20539;-74
2022/05/16 00:57:05;;;;;;;6.60;3.03;;;16.20;87.60;;;;;;5051878;28;20427;-74
2022/05/16 00:59:56;;;;;;;3.90;2.10;;;16.20;87.30;;;;;;5054214;28;20543;-74
2022/05/16 01:05:48;;;;;;;4.63;2.23;;;16.20;88.20;;;;;;5045112;28;20450;-74
2022/05/16 01:08:35;;;;;;;4.93;2.83;;;16.10;88.50;;;;;;5048324;28;20471;-74
2022/05/16 01:11:21;;;;;;;10.30;2.90;;;16.20;88.90;;;;;;5058701;28;20532;-74
2022/05/16 01:14:08;;;;;;;4.60;2.93;;;16.20;88.90;;;;;;5053914;28;20967;-74
2022/05/16 01:16:53;;;;;;;7.50;3.10;;;16.20;90.20;;;;;;5051136;28;20462;-74
2022/05/16 01:19:39;;;;;;;4.43;3.40;;;16.20;90.10;;;;;;5051907;28;20501;-74
2022/05/16 01:22:32;;;;;;;3.53;2.60;;;16.20;90.10;;;;;;5051093;28;20806;-75
2022/05/16 01:25:23;;;;;;;4.50;2.67;;;16.10;89.70;;;;;;5051164;28;20969;-74
2022/05/16 01:28:08;;;;;;;5.80;2.67;;;16.20;89.80;;;;;;5053939;28;20470;-74
2022/05/16 01:30:55;;;;;;;5.27;2.60;;;16.20;86.50;;;;;;5054434;28;20579;-74
2022/05/16 01:33:41;;;;;;;5.03;2.50;;;16.30;88.40;;;;;;5039818;28;20570;-74
2022/05/16 01:36:27;;;;;;;4.27;3.00;;;16.20;89.60;;;;;;5051286;28;20443;-74
2022/05/16 01:39:14;;;;;;;6.83;2.80;;;16.30;89.60;;;;;;5059919;28;20512;-74
2022/05/16 01:42:00;;;;;;;4.40;3.10;;;16.30;88.80;;;;;;5051742;28;20490;-74
2022/05/16 01:44:46;;;;;;;5.53;2.87;;;16.30;89.90;;;;;;5045803;28;20571;-74
2022/05/16 01:47:33;;;;;;;3.70;2.50;;;16.30;89.70;;;;;;5056568;28;20432;-74
2022/05/16 01:50:19;;;;;;;8.97;2.87;;;16.30;90.00;;;;;;5055008;28;20574;-74
2022/05/16 01:53:05;;;;;;;5.53;2.70;;;16.40;89.90;;;;;;5055299;28;20459;-75
2022/05/16 01:55:52;;;;;;;6.17;2.83;;;16.50;90.00;;;;;;5047786;28;20516;-74
2022/05/16 01:58:40;;;;;;;5.80;2.67;;;16.50;90.00;;;;;;5054604;28;20810;-74
2022/05/16 02:01:26;;;;;;;4.60;2.43;;;16.60;89.60;;;;;;5035570;22;20917;-78
2022/05/16 02:04:12;;;;;;;4.10;2.70;;;16.60;89.00;;;;;;5020222;28;20426;-78
2022/05/16 02:06:57;;;;;;;5.33;2.60;;;16.50;89.10;;;;;;5019985;28;20449;-79
2022/05/16 02:09:43;;;;;;;4.60;3.23;;;16.50;90.60;;;;;;5013299;28;20523;-79
2022/05/16 02:12:30;;;;;;;4.93;2.70;;;16.40;90.30;;;;;;5011750;28;20465;-78
2022/05/16 02:15:19;;;;;;;3.80;2.10;;;16.50;90.40;;;;;;5014846;28;21012;-79
2022/05/16 02:18:06;;;;;;;5.53;3.90;;;16.60;90.50;;;;;;5013404;28;20933;-78
2022/05/16 02:20:52;;;;;;;7.30;2.53;;;16.70;90.20;;;;;;5017125;28;20465;-78
2022/05/16 02:26:46;;;;;;;4.20;3.23;;;16.60;90.10;;;;;;5019173;28;20440;-79
2022/05/16 02:29:34;;;;;;;4.83;2.63;;;16.60;90.80;;;;;;5020730;28;20484;-79
2022/05/16 02:32:20;;;;;;;9.10;2.87;;;16.60;90.60;;;;;;5016971;28;20456;-79
2022/05/16 02:35:06;;;;;;;3.70;2.10;;;16.60;90.80;;;;;;5016762;28;20438;-79
2022/05/16 02:37:52;;;;;;;4.27;2.30;;;16.60;90.80;;;;;;5017297;28;20449;-78
2022/05/16 02:40:38;;;;;;;4.00;2.60;;;16.60;90.90;;;;;;5019035;28;20481;-78
2022/05/16 02:43:23;;;;;;;4.50;2.50;;;16.60;91.20;;;;;;5014160;28;20474;-79
2022/05/16 02:46:10;;;;;;;3.70;2.50;;;16.70;91.20;;;;;;5021979;28;20539;-79
2022/05/16 02:48:56;;;;;;;4.77;2.87;;;16.70;91.50;;;;;;5016853;28;20554;-78
2022/05/16 02:51:42;;;;;;;8.83;3.80;;;16.80;91.50;;;;;;5017722;28;21056;-79
2022/05/16 02:54:27;;;;;;;5.97;2.70;;;16.80;91.40;;;;;;5027481;28;20450;-78
2022/05/16 02:57:13;;;;;;;5.23;2.83;;;16.90;91.50;;;;;;5029204;28;20429;-79
2022/05/16 03:00:00;;;;;;;3.40;2.57;;;16.90;91.60;;;;;;5019012;28;20481;-79
2022/05/16 03:02:47;;;;;;;4.10;2.73;;;16.90;91.20;;;;;;5022278;28;20551;-78
2022/05/16 03:05:33;;;;;;;16.13;2.70;;;16.90;91.70;;;;;;5031750;28;20544;-78
2022/05/16 03:08:19;;;;;;;4.20;3.07;;;16.90;91.50;;;;;;5023464;28;20478;-79
2022/05/16 03:11:05;;;;;;;6.17;2.93;;;16.90;91.30;;;;;;5015024;28;20485;-79
2022/05/16 03:13:51;;;;;;;6.07;2.97;;;16.90;92.10;;;;;;5021437;28;20478;-79
2022/05/16 03:16:37;;;;;;;5.20;2.53;;;16.90;92.00;;;;;;5020922;28;20791;-79
2022/05/16 03:19:24;;;;;;;5.87;2.57;;;16.80;91.60;;;;;;5029536;28;20448;-79
2022/05/16 03:22:10;;;;;;;7.13;3.10;;;16.70;91.90;;;;;;5019906;28;20469;-79
2022/05/16 03:24:56;;;;;;;5.70;3.30;;;16.50;91.80;;;;;;5026716;28;20463;-80
2022/05/16 03:27:42;;;;;;;5.10;2.93;;;16.50;91.20;;;;;;5022034;28;20432;-77
2022/05/16 03:30:28;;;;;;;9.83;3.23;;;16.50;91.90;;;;;;5018657;28;20472;-79
2022/05/16 03:33:14;;;;;;;5.20;3.00;;;16.40;91.70;;;;;;5014636;28;20532;-78
2022/05/16 03:36:02;;;;;;;3.50;2.77;;;16.40;92.20;;;;;;5008000;28;20420;-79
2022/05/16 03:41:52;;;;;;;4.70;2.73;;;16.20;92.30;;;;;;5015722;28;20458;-78
2022/05/16 03:44:38;;;;;;;6.87;3.10;;;16.20;92.60;;;;;;5027926;28;20432;-79
2022/05/16 03:47:23;;;;;;;3.40;2.23;;;16.20;92.60;;;;;;5025050;28;20438;-79
2022/05/16 03:50:10;;;;;;;5.43;2.90;;;16.10;92.60;;;;;;5027596;28;20484;-79
2022/05/16 03:52:59;;;;;;;3.97;3.30;;;16.00;92.30;;;;;;5024383;28;20835;-79
2022/05/16 03:55:45;;;;;;;5.40;3.10;;;16.00;92.80;;;;;;5018148;28;20401;-79
2022/05/16 03:58:30;;;;;;;3.30;2.63;;;16.00;92.50;;;;;;5025482;28;20437;-78
2022/05/16 04:01:16;;;;;;;3.83;2.80;;;15.90;92.70;;;;;;5017058;28;20524;-79
2022/05/16 04:04:02;;;;;;;4.40;3.00;;;15.90;92.40;;;;;;5015077;28;20448;-79
2022/05/16 04:06:48;;;;;;;4.03;3.07;;;15.80;92.80;;;;;;5019704;28;20445;-79
2022/05/16 04:09:35;;;;;;;7.27;3.43;;;15.80;92.80;;;;;;5014330;28;20480;-79
2022/05/16 04:12:20;;;;;;;4.73;3.17;;;15.80;93.30;;;;;;5017252;28;20488;-78
2022/05/16 04:15:08;;;;;;;5.90;2.90;;;15.90;93.20;;;;;;5020115;28;20461;-80
2022/05/16 04:17:53;;;;;;;8.93;3.10;;;15.90;93.30;;;;;;5017620;28;20512;-80
2022/05/16 04:20:39;;;;;;;4.60;2.80;;;15.80;93.00;;;;;;5018790;28;20500;-79
2022/05/16 04:23:25;;;;;;;8.90;3.20;;;15.60;93.60;;;;;;5016713;28;21057;-78
2022/05/16 04:26:12;;;;;;;3.20;2.80;;;15.60;93.80;;;;;;5015070;28;20461;-79
2022/05/16 04:28:58;;;;;;;11.10;3.80;;;15.60;94.20;;;;;;5017291;28;20508;-80
2022/05/16 04:31:44;;;;;;;8.67;3.10;;;15.60;94.90;;;;;;5022797;28;20468;-79
2022/05/16 04:34:29;;;;;;;6.60;2.93;;;15.60;95.40;;;;;;5022082;28;20854;-79
2022/05/16 04:37:15;;;;;;;3.40;2.77;;;15.70;95.80;;;;;;5035991;28;20431;-80
2022/05/16 04:40:01;;;;;;;4.43;2.97;;;15.80;96.10;;;;;;5021178;28;20469;-79
2022/05/16 04:42:48;;;;;;;4.63;2.83;;;15.90;96.20;;;;;;5024281;28;20964;-79
2022/05/16 04:45:33;;;;;;;10.03;3.00;;;16.00;96.20;;;;;;5020258;28;20444;-78
2022/05/16 04:48:19;;;;;;;4.17;2.90;;;16.10;96.00;;;;;;5024028;28;20432;-79
2022/05/16 04:51:05;;;;;;;4.07;2.90;;;16.20;96.10;;;;;;5024442;28;20447;-79
2022/05/16 04:53:50;;;;;;;4.43;2.37;;;16.40;96.00;;;;;;5030782;28;20455;-78
2022/05/16 04:56:37;;;;;;;3.20;2.47;;;16.50;96.20;;;;;;5023568;28;20455;-79
2022/05/16 04:59:24;;;;;;;4.67;2.70;;;16.60;96.30;;;;;;5021323;28;20559;-78
2022/05/16 05:02:09;;;;;;;6.40;3.87;;;16.80;96.30;;;;;;5021463;28;20465;-78
2022/05/16 05:04:55;;;;;;;8.00;3.37;;;16.80;96.50;;;;;;5025397;28;20421;-79
2022/05/16 05:07:42;;;;;;;8.57;3.10;;;17.00;96.30;;;;;;5021195;28;20437;-79
2022/05/16 05:16:44;;;;;;;3.37;2.60;;;17.40;95.60;;;;;;5017214;28;20776;-79
2022/05/16 05:19:30;;;;;;;5.00;2.40;;;17.40;94.80;;;;;;5025083;28;20824;-79
2022/05/16 05:22:16;;;;;;;9.20;2.40;;;17.40;95.00;;;;;;5020083;28;20541;-79
2022/05/16 05:25:02;;;;;;;7.13;3.10;;;17.40;95.10;;;;;;5021775;28;20865;-80
2022/05/16 05:27:49;;;;;;;5.10;2.70;;;17.50;95.80;;;;;;5028703;28;20796;-79
2022/05/16 05:30:35;;;;;;;10.33;2.60;;;17.60;96.10;;;;;;5021617;28;20485;-80
2022/05/16 05:33:22;;;;;;;4.60;3.13;;;17.70;96.90;;;;;;5032159;28;20451;-78
2022/05/16 05:36:09;;;;;;;8.33;3.23;;;17.80;96.80;;;;;;5021312;28;20425;-79
2022/05/16 05:38:54;;;;;;;3.83;2.93;;;17.90;95.90;;;;;;5022257;28;20453;-79
2022/05/16 05:41:40;;;;;;;4.60;2.83;;;18.00;95.20;;;;;;5026675;28;20568;-78
2022/05/16 05:44:26;;;;;;;7.73;3.10;;;18.20;95.70;;;;;;5013806;28;20420;-78
2022/05/16 05:47:12;;;;;;;7.90;3.57;;;18.20;95.80;;;;;;5019544;28;20538;-79
2022/05/16 05:50:01;;;;;;;6.10;3.23;;;18.20;95.80;;;;;;5015925;28;20481;-79
2022/05/16 05:52:46;;;;;;;5.43;3.00;;;18.40;95.30;;;;;;5021761;28;20828;-80
2022/05/16 05:55:32;;;;;;;8.17;3.50;;;18.50;95.20;;;;;;5026374;28;20445;-80
2022/05/16 05:58:18;;;;;;;4.40;3.27;;;18.60;94.70;;;;;;5021369;28;20449;-79
2022/05/16 06:01:05;;;;;;;6.23;3.27;;;18.70;93.90;;;;;;5019133;28;20480;-80
2022/05/16 06:03:51;;;;;;;14.50;3.90;;;18.80;93.80;;;;;;5022935;28;20475;-79
2022/05/16 06:06:40;;;;;;;6.77;2.90;;;18.90;93.50;;;;;;5022723;28;20456;-80
2022/05/16 06:09:26;;;;;;;5.73;3.27;;;18.90;93.70;;;;;;5012773;28;20514;-79
2022/05/16 06:12:12;;;;;;;5.00;2.87;;;18.90;93.40;;;;;;5017527;28;20461;-79
2022/05/16 06:14:57;;;;;;;4.53;3.40;;;18.90;94.80;;;;;;5017545;28;20432;-79
2022/05/16 06:17:44;;;;;;;11.33;3.70;;;18.80;96.50;;;;;;5016946;28;20445;-78
2022/05/16 06:20:30;;;;;;;5.87;3.50;;;18.70;96.50;;;;;;5016851;28;20543;-78
2022/05/16 06:23:18;;;;;;;7.00;3.13;;;18.70;96.00;;;;;;5019340;28;20465;-79
2022/05/16 06:26:05;;;;;;;9.57;3.00;;;18.70;97.00;;;;;;5027106;28;20449;-79
2022/05/16 06:28:51;;;;;;;14.03;3.53;;;18.60;97.80;;;;;;5009670;28;20454;-79
2022/05/16 06:31:36;;;;;;;5.63;2.80;;;18.60;98.00;;;;;;5021985;28;20574;-80
2022/05/16 06:34:23;;;;;;;5.70;3.37;;;18.60;98.30;;;;;;5019410;28;20449;-79
2022/05/16 06:37:08;;;;;;;5.80;3.20;;;18.60;99.80;;;;;;5021508;28;20440;-79
2022/05/16 06:39:56;;;;;;;5.23;3.20;;;18.70;99.90;;;;;;5018712;28;20532;-78
2022/05/16 06:42:42;;;;;;;6.90;3.67;;;18.70;99.90;;;;;;5025401;28;20882;-79
2022/05/16 06:45:28;;;;;;;7.17;3.50;;;18.70;99.90;;;;;;5021192;28;20445;-79
2022/05/16 06:48:14;;;;;;;9.20;3.70;;;18.80;99.90;;;;;;5012668;28;20978;-79
2022/05/16 06:51:00;;;;;;;4.80;3.93;;;18.90;99.90;;;;;;5020813;28;20484;-79
2022/05/16 06:53:45;;;;;;;5.70;3.70;;;19.10;99.10;;;;;;5007433;28;20919;-80
2022/05/16 06:56:33;;;;;;;6.90;3.60;;;19.20;98.10;;;;;;5018084;28;20442;-80
2022/05/16 06:59:19;;;;;;;8.73;3.27;;;19.40;98.00;;;;;;5016643;28;20524;-79
2022/05/16 07:02:06;;;;;;;13.27;4.23;;;19.60;97.60;;;;;;5016394;28;20545;-80
2022/05/16 07:04:52;;;;;;;9.60;3.30;;;19.70;96.10;;;;;;5018564;28;20489;-79
2022/05/16 07:07:38;;;;;;;5.30;3.30;;;19.80;96.60;;;;;;5011435;28;20445;-79
2022/05/16 07:10:23;;;;;;;9.03;3.80;;;19.90;97.90;;;;;;5009783;28;20488;-79
2022/05/16 07:13:11;;;;;;;6.20;3.70;;;20.00;98.10;;;;;;5008556;28;20500;-79
2022/05/16 07:15:57;;;;;;;7.00;3.93;;;20.10;99.30;;;;;;5005243;28;20462;-80
2022/05/16 07:18:43;;;;;;;7.70;3.17;;;20.10;99.10;;;;;;5012312;28;20803;-79
2022/05/16 07:21:28;;;;;;;7.67;3.10;;;20.20;99.70;;;;;;5023269;28;20465;-80
2022/05/16 07:24:14;;;;;;;8.63;3.50;;;20.30;99.80;;;;;;5027063;28;20444;-80
2022/05/16 07:30:07;;;;;;;5.53;3.50;;;20.30;99.90;;;;;;5017137;28;20482;-79
2022/05/16 07:32:55;;;;;;;7.90;3.17;;;20.40;99.90;;;;;;5021139;28;20420;-79
2022/05/16 07:35:41;;;;;;;7.73;4.03;;;20.40;99.90;;;;;;5022563;28;20929;-78
2022/05/16 07:38:27;;;;;;;5.80;3.70;;;20.50;99.90;;;;;;5016635;28;20446;-79
2022/05/16 07:41:12;;;;;;;4.63;3.73;;;20.50;99.90;;;;;;5023015;28;20456;-79
2022/05/16 07:43:58;;;;;;;6.90;4.30;;;20.60;99.20;;;;;;5015753;28;20426;-79
2022/05/16 07:46:45;;;;;;;6.07;4.00;;;20.70;99.70;;;;;;5015316;28;20497;-79
2022/05/16 07:49:31;;;;;;;8.27;4.40;;;20.80;96.60;;;;;;5030821;28;20476;-79
2022/05/16 07:52:17;;;;;;;7.60;4.00;;;20.80;94.90;;;;;;5021199;28;20453;-79
2022/05/16 07:55:04;;;;;;;7.33;3.87;;;20.90;93.30;;;;;;5014043;28;20453;-78
2022/05/16 07:57:50;;;;;;;9.13;4.10;;;21.00;87.30;;;;;;5018678;28;20496;-79
2022/05/16 08:00:35;;;;;;;11.83;3.57;;;21.20;84.10;;;;;;5029493;28;20803;-79
2022/05/16 08:03:24;;;;;;;11.43;3.93;;;21.40;81.80;;;;;;5020076;28;20508;-79
2022/05/16 08:06:10;;;;;;;9.00;4.10;;;21.70;79.60;;;;;;5017604;28;20887;-79
2022/05/16 08:11:59;;;;;;;8.77;4.13;;;22.00;80.20;;;;;;5023998;28;20449;-79
2022/05/16 08:14:45;;;;;;;9.70;3.70;;;21.90;76.60;;;;;;5032332;28;20428;-79
2022/05/16 08:17:31;;;;;;;11.00;4.23;;;22.00;71.40;;;;;;5017372;28;20548;-78
2022/05/16 08:20:19;;;;;;;6.50;3.60;;;22.10;72.10;;;;;;5023343;28;20485;-79
2022/05/16 08:23:05;;;;;;;8.23;4.37;;;22.20;70.40;;;;;;5022006;28;20850;-80
2022/05/16 08:25:51;;;;;;;8.60;4.00;;;22.30;68.30;;;;;;5025896;28;20506;-78
2022/05/16 08:28:38;;;;;;;8.63;4.33;;;22.40;67.80;;;;;;5024217;28;20511;-80
2022/05/16 08:31:28;;;;;;;9.73;4.13;;;22.50;70.30;;;;;;5026237;28;20579;-77
2022/05/16 08:34:14;;;;;;;7.80;4.10;;;22.60;69.80;;;;;;5024642;28;20437;-78
2022/05/16 08:40:06;;;;;;;6.17;4.33;;;22.80;64.80;;;;;;5021048;28;20576;-78
2022/05/16 08:42:55;;;;;;;7.17;4.27;;;22.80;65.50;;;;;;5023638;28;20948;-78
2022/05/16 08:45:45;;;;;;;6.57;4.30;;;22.90;65.20;;;;;;5018063;28;20457;-79
2022/05/16 08:48:34;;;;;;;8.17;3.90;;;23.00;67.10;;;;;;5014007;28;20448;-78
2022/05/16 08:51:23;;;;;;;9.13;4.67;;;23.10;68.50;;;;;;5013424;28;20488;-79
2022/05/16 08:54:14;;;;;;;10.17;4.97;;;23.20;65.70;;;;;;5012527;28;21033;-78
2022/05/16 08:57:06;;;;;;;9.97;4.73;;;23.20;63.30;;;;;;5021089;28;20454;-79
2022/05/16 08:59:59;;;;;;;15.23;5.13;;;23.30;64.70;;;;;;5028585;28;20468;-78
2022/05/16 09:02:48;;;;;;;5.83;3.70;;;23.40;66.50;;;;;;5024326;28;20443;-79
2022/05/16 09:05:38;;;;;;;12.33;4.50;;;23.50;64.70;;;;;;5023822;28;20457;-78
2022/05/16 09:08:40;;;;;;;16.97;4.23;;;23.60;63.50;;;;;;5019324;28;20450;-81
2022/05/16 09:11:35;;;;;;;9.80;4.43;;;23.60;61.80;;;;;;5027811;28;20497;-79
2022/05/16 09:14:34;;;;;;;9.23;5.20;;;23.70;64.00;;;;;;5021009;28;21049;-77
2022/05/16 09:17:26;;;;;;;11.53;4.30;;;23.90;66.80;;;;;;5024389;28;20456;-77
2022/05/16 09:20:23;;;;;;;18.23;4.50;;;23.90;62.10;;;;;;5019817;28;20494;-77
2022/05/16 09:23:15;;;;;;;12.43;4.43;;;23.90;63.10;;;;;;5014335;28;20476;-78
2022/05/16 09:26:09;;;;;;;8.90;4.30;;;24.00;61.70;;;;;;5017423;28;20834;-78
2022/05/16 09:29:01;;;;;;;7.50;5.20;;;23.90;62.00;;;;;;5020209;28;20880;-78
2022/05/16 09:31:49;;;;;;;9.77;4.73;;;24.00;65.10;;;;;;5026721;28;20848;-79
2022/05/16 09:34:35;;;;;;;6.17;4.63;;;24.10;62.20;;;;;;5025422;28;20551;-78
2022/05/16 09:37:20;;;;;;;8.13;4.60;;;24.20;63.70;;;;;;5015973;28;20431;-80
2022/05/16 09:40:08;;;;;;;8.93;4.50;;;24.20;61.20;;;;;;5036821;28;20883;-79
2022/05/16 09:42:54;;;;;;;10.43;5.10;;;24.20;62.20;;;;;;5031975;28;20469;-78
2022/05/16 09:45:46;;;;;;;11.63;5.13;;;24.40;63.10;;;;;;5022023;28;20456;-79
2022/05/16 09:48:32;;;;;;;21.73;5.10;;;24.40;61.70;;;;;;5017462;28;21426;-78
2022/05/16 09:51:22;;;;;;;7.57;5.17;;;24.50;62.20;;;;;;5032460;28;20997;-79
2022/05/16 09:54:14;;;;;;;10.07;5.00;;;24.70;61.00;;;;;;5026224;28;20808;-78
2022/05/16 09:57:16;;;;;;;7.93;4.60;;;24.70;58.60;;;;;;5023584;28;20424;-78
2022/05/16 10:00:17;;;;;;;11.10;5.83;;;24.80;60.80;;;;;;5035264;28;20542;-79
2022/05/16 10:03:24;;;;;;;11.10;4.90;;;24.80;60.80;;;;;;5027916;28;20467;-78
2022/05/16 10:06:27;;;;;;;9.67;4.70;;;24.90;60.30;;;;;;5022270;28;20727;-80
2022/05/16 10:09:16;;;;;;;12.50;5.10;;;25.00;60.40;;;;;;5037561;28;20937;-80
2022/05/16 10:12:01;;;;;;;9.70;5.00;;;25.10;62.10;;;;;;5040221;28;20481;-80
2022/05/16 10:14:48;;;;;;;11.67;4.97;;;25.30;60.40;;;;;;5030136;28;20471;-80
2022/05/16 10:17:38;;;;;;;8.07;5.23;;;25.20;58.80;;;;;;5036304;28;20436;-80
2022/05/16 10:20:30;;;;;;;10.60;5.00;;;25.30;59.80;;;;;;5036195;28;20541;-79
2022/05/16 10:23:23;;;;;;;12.43;5.50;;;25.40;58.10;;;;;;5034014;28;20433;-79
2022/05/16 10:26:13;;;;;;;12.50;5.87;;;25.20;58.90;;;;;;5028374;28;20430;-79
2022/05/16 10:29:02;;;;;;;16.47;5.90;;;25.10;58.70;;;;;;5033656;28;20441;-78
2022/05/16 10:35:07;;;;;;;8.00;4.93;;;25.00;61.40;;;;;;4986818;28;20608;-77
2022/05/16 10:37:57;;;;;;;13.00;4.80;;;25.10;60.90;;;;;;5032162;28;20449;-80
2022/05/16 10:40:49;;;;;;;8.63;5.00;;;25.10;60.00;;;;;;5038400;28;20444;-79
2022/05/16 10:43:47;;;;;;;10.23;5.20;;;25.10;59.00;;;;;;5029493;28;20454;-79
2022/05/16 10:46:36;;;;;;;11.83;5.07;;;25.10;58.70;;;;;;5025868;28;20438;-79
2022/05/16 10:49:22;;;;;;;12.30;4.70;;;25.20;58.80;;;;;;5037988;28;20492;-78
2022/05/16 10:52:24;;;;;;;12.30;4.77;;;25.30;60.90;;;;;;5030839;28;20480;-79
2022/05/16 10:55:11;;;;;;;13.93;5.00;;;25.50;59.00;;;;;;5022203;28;20472;-77
2022/05/16 10:58:17;;;;;;;12.43;4.60;;;25.80;59.00;;;;;;5031341;28;20507;-79
2022/05/16 11:01:07;;;;;;;11.13;5.40;;;25.80;56.50;;;;;;5021931;28;20471;-79
2022/05/16 11:04:13;;;;;;;18.53;5.03;;;25.70;58.30;;;;;;5013794;28;20468;-79
2022/05/16 11:07:17;;;;;;;12.53;4.97;;;25.50;56.70;;;;;;5027599;28;20847;-78
2022/05/16 11:10:08;;;;;;;23.30;4.70;;;25.10;58.70;;;;;;5027415;28;20822;-78
2022/05/16 11:13:05;;;;;;;10.20;5.10;;;24.60;68.70;;;;;;5027608;28;20493;-79
2022/05/16 11:15:56;;;;;;;12.13;4.63;;;24.30;80.30;;;;;;5017434;28;20424;-79
2022/05/16 11:18:48;;;;;;;15.50;5.37;;;23.70;86.90;;;;;;5015506;28;20465;-77
2022/05/16 11:21:41;;;;;;;11.80;5.07;;;22.60;92.50;;;;;;5013180;28;20456;-78
2022/05/16 11:24:37;;;;;;;12.73;4.33;;;22.10;96.10;;;;;;5012739;28;20500;-76
2022/05/16 11:27:31;;;;;;;12.83;5.57;;;21.80;99.90;;;;;;5030080;28;20544;-77
2022/05/16 11:30:22;;;;;;;10.10;4.80;;;21.50;99.90;;;;;;5015916;28;20809;-78
2022/05/16 11:33:18;;;;;;;9.47;4.63;;;21.30;99.90;;;;;;5015005;28;20592;-77
2022/05/16 11:36:07;;;;;;;16.80;6.57;;;21.10;99.90;;;;;;5016973;28;20429;-78
2022/05/16 11:39:13;;;;;;;18.60;5.63;;;20.90;99.90;;;;;;5018394;28;20466;-78
2022/05/16 11:42:12;;;;;;;9.13;5.07;;;20.60;99.90;;;;;;5002785;28;20430;-76
2022/05/16 11:45:09;;;;;;;10.20;5.03;;;20.40;99.90;;;;;;5022190;28;20780;-79
2022/05/16 11:48:01;;;;;;;7.23;4.57;;;20.40;99.90;;;;;;5017979;28;20436;-77
2022/05/16 11:50:54;;;;;;;15.13;5.67;;;20.30;99.90;;;;;;5015202;28;20472;-78
2022/05/16 11:53:47;;;;;;;10.03;4.77;;;20.30;99.90;;;;;;5014064;28;20576;-78
2022/05/16 12:03:18;;;;;;;9.13;4.83;;;20.10;99.90;;;;;;5012103;28;20411;-78
2022/05/16 12:06:26;;;;;;;11.67;4.90;;;20.10;99.90;;;;;;5027079;28;20428;-78
2022/05/16 12:09:24;;;;;;;8.40;4.90;;;20.10;99.90;;;;;;5010967;28;20465;-78
2022/05/16 12:12:23;;;;;;;9.90;5.53;;;20.20;99.90;;;;;;5019121;28;20465;-77
2022/05/16 12:15:20;;;;;;;8.40;5.50;;;20.20;99.90;;;;;;5004479;28;20450;-77
2022/05/16 12:18:28;;;;;;;13.77;7.80;;;20.30;99.90;;;;;;5011520;28;20829;-78
2022/05/16 12:21:23;;;;;;;11.47;6.23;;;20.30;99.90;;;;;;5015968;28;20565;-77
2022/05/16 12:24:31;;;;;;;10.80;6.67;;;20.30;99.90;;;;;;5013763;28;20970;-77
2022/05/16 12:27:28;;;;;;;10.60;5.67;;;20.40;99.90;;;;;;5017210;28;20465;-78
2022/05/16 12:30:35;;;;;;;11.93;6.10;;;20.40;99.90;;;;;;5010666;28;20481;-77
2022/05/16 12:33:50;;;;;;;10.30;5.07;;;20.60;99.90;;;;;;5004401;28;20817;-77
2022/05/16 12:36:37;;;;;;;7.47;4.13;;;20.70;99.90;;;;;;5027293;28;20745;-77
2022/05/16 12:39:30;;;;;;;18.03;3.70;;;21.00;99.90;;;;;;5016350;28;20441;-78
2022/05/16 12:42:53;;;;;;;8.00;3.57;;;21.20;99.90;;;;;;5001979;28;20469;-77
2022/05/16 12:46:10;;;;;;;8.90;3.83;;;21.50;99.90;;;;;;4935236;29;20443;-78
2022/05/16 12:49:16;;;;;;;5.23;3.23;;;21.70;99.90;;;;;;5015296;28;20530;-78
2022/05/16 12:52:07;;;;;;;8.63;3.17;;;21.80;99.90;;;;;;5011911;28;20520;-78
2022/05/16 12:55:18;;;;;;;5.13;2.30;;;21.80;99.90;;;;;;5013648;28;20445;-78
2022/05/16 12:58:11;;;;;;;4.93;2.37;;;21.70;99.90;;;;;;5012851;28;20811;-77
2022/05/16 13:01:05;;;;;;;4.70;2.33;;;21.70;99.90;;;;;;5014386;28;20964;-77
2022/05/16 13:03:58;;;;;;;9.30;1.73;;;21.70;99.90;;;;;;5015529;28;20581;-78
2022/05/16 13:06:51;;;;;;;7.60;2.20;;;21.70;99.90;;;;;;5012445;28;20855;-78
2022/05/16 13:09:48;;;;;;;4.73;1.70;;;21.90;99.90;;;;;;5011916;28;20444;-77
2022/05/16 13:12:50;;;;;;;3.17;1.60;;;22.10;99.90;;;;;;5019445;28;21149;-79
2022/05/16 13:15:45;;;;;;;4.77;1.77;;;22.30;99.90;;;;;;5009706;28;20596;-78
2022/05/16 13:18:35;;;;;;;4.03;1.90;;;22.30;99.90;;;;;;5008336;28;20453;-78
2022/05/16 13:21:22;;;;;;;8.00;2.50;;;22.30;99.90;;;;;;5006370;28;20529;-78
2022/05/16 13:24:10;;;;;;;5.53;1.70;;;22.30;99.90;;;;;;5004040;28;20453;-77
2022/05/16 13:30:04;;;;;;;3.37;1.60;;;22.40;99.90;;;;;;5009133;28;21253;-77
2022/05/16 13:32:50;;;;;;;3.30;2.43;;;22.20;99.90;;;;;;5010352;28;20488;-77
2022/05/16 13:35:40;;;;;;;3.97;1.60;;;22.10;99.90;;;;;;5008583;28;20484;-77
2022/05/16 13:38:37;;;;;;;8.00;1.90;;;22.00;99.90;;;;;;5018426;28;20497;-79
2022/05/16 13:41:24;;;;;;;8.23;2.20;;;22.00;99.90;;;;;;5012545;28;20473;-79
2022/05/16 13:44:14;;;;;;;3.20;1.60;;;21.90;99.90;;;;;;5016076;28;20451;-75
2022/05/16 13:47:01;;;;;;;4.07;1.87;;;21.80;99.90;;;;;;5014806;28;20449;-78
2022/05/16 13:49:48;;;;;;;3.77;1.70;;;21.80;99.90;;;;;;5012855;28;21112;-79
2022/05/16 13:52:40;;;;;;;4.00;1.57;;;21.80;99.90;;;;;;5018470;28;20473;-78
2022/05/16 13:55:27;;;;;;;6.90;2.20;;;21.50;99.90;;;;;;5017068;28;20442;-78
2022/05/16 13:58:14;;;;;;;5.57;2.33;;;21.40;99.90;;;;;;5012151;28;20456;-79
2022/05/16 14:01:18;;;;;;;5.23;2.30;;;21.50;99.90;;;;;;5010578;28;20481;-78
2022/05/16 14:04:07;;;;;;;5.07;2.40;;;21.40;99.90;;;;;;5012390;28;20798;-78
2022/05/16 14:06:54;;;;;;;4.03;2.00;;;21.20;99.90;;;;;;5014293;28;20454;-78
2022/05/16 14:09:44;;;;;;;4.87;2.20;;;21.20;99.90;;;;;;5015049;28;20829;-79
2022/05/16 14:12:35;;;;;;;4.30;2.20;;;21.20;99.90;;;;;;5009598;28;20604;-77
2022/05/16 14:15:29;;;;;;;7.00;2.30;;;21.30;99.90;;;;;;5016329;28;20482;-78
2022/05/16 14:18:24;;;;;;;3.67;1.77;;;21.40;99.90;;;;;;5012015;28;20461;-79
2022/05/16 14:21:17;;;;;;;3.47;1.93;;;21.60;99.90;;;;;;5014179;28;20542;-79
2022/05/16 14:24:09;;;;;;;4.97;1.90;;;21.90;99.90;;;;;;5018896;28;20457;-79
2022/05/16 14:26:56;;;;;;;4.00;1.63;;;22.00;99.90;;;;;;5010678;28;20445;-79
2022/05/16 14:29:42;;;;;;;3.23;1.50;;;22.20;99.90;;;;;;5014026;28;20464;-79
2022/05/16 14:32:31;;;;;;;6.40;2.33;;;22.50;99.90;;;;;;5015344;28;20473;-79
2022/05/16 14:35:23;;;;;;;3.00;1.80;;;22.90;99.90;;;;;;5014482;28;20506;-79
2022/05/16 14:38:13;;;;;;;2.63;1.53;;;23.00;99.90;;;;;;5014706;28;20884;-79
2022/05/16 14:41:07;;;;;;;4.03;1.97;;;22.90;99.90;;;;;;5014063;28;20528;-79
2022/05/16 14:44:02;;;;;;;5.60;2.17;;;22.80;99.90;;;;;;5009804;28;20428;-79
2022/05/16 14:46:59;;;;;;;3.67;2.23;;;22.70;99.90;;;;;;5005124;28;20953;-79
2022/05/16 14:49:45;;;;;;;19.83;2.60;;;22.70;99.90;;;;;;5011622;28;20799;-78
2022/05/16 14:52:33;;;;;;;4.77;2.47;;;22.70;99.90;;;;;;5011454;28;20473;-79
2022/05/16 14:55:26;;;;;;;7.33;2.43;;;22.70;99.90;;;;;;5010607;28;20440;-79
2022/05/16 14:58:13;;;;;;;5.93;3.20;;;22.50;99.90;;;;;;5011555;28;20457;-78
2022/05/16 15:04:05;;;;;;;5.73;2.57;;;22.30;99.90;;;;;;5011274;28;20441;-79
2022/05/16 15:06:51;;;;;;;6.27;2.10;;;22.30;99.90;;;;;;5009349;28;20448;-79
2022/05/16 15:09:38;;;;;;;8.17;2.70;;;22.30;99.90;;;;;;5012098;28;20449;-79
2022/05/16 15:12:24;;;;;;;6.80;2.27;;;22.30;99.90;;;;;;5015122;28;20439;-78
2022/05/16 15:15:11;;;;;;;8.20;2.80;;;22.20;99.90;;;;;;5010488;28;20465;-76
2022/05/16 15:17:56;;;;;;;7.40;2.37;;;22.30;99.90;;;;;;5012361;28;20448;-78
2022/05/16 15:20:43;;;;;;;6.80;2.50;;;22.20;99.90;;;;;;5004582;28;20465;-77